sensor_id;sensor_type;location;lat;lon;timestamp;P1;durP1;ratioP1;P2;durP2;ratioP2
16506;SDS011;8366;51.020;7.642;2022-08-27T00:00:25;12.88;;;8.50;;
16506;SDS011;8366;51.020;7.642;2022-08-27T00:02:51;11.95;;;8.68;;
16506;SDS011;8366;51.020;7.642;2022-08-27T00:05:19;10.95;;;8.38;;
16506;SDS011;8366;51.020;7.642;2022-08-27T00:07:46;12.70;;;8.73;;
16506;SDS011;8366;51.020;7.642;2022-08-27T00:10:15;14.80;;;9.13;;
16506;SDS011;8366;51.020;7.642;2022-08-27T00:12:44;14.13;;;9.18;;
16506;SDS011;8366;51.020;7.642;2022-08-27T00:15:12;12.35;;;8.95;;
16506;SDS011;8366;51.020;7.642;2022-08-27T00:17:39;13.00;;;9.27;;
16506;SDS011;8366;51.020;7.642;2022-08-27T00:20:07;12.70;;;9.35;;
16506;SDS011;8366;51.020;7.642;2022-08-27T00:22:35;14.77;;;9.68;;
16506;SDS011;8366;51.020;7.642;2022-08-27T00:25:02;15.63;;;10.02;;
16506;SDS011;8366;51.020;7.642;2022-08-27T00:27:29;12.73;;;9.95;;
16506;SDS011;8366;51.020;7.642;2022-08-27T00:29:56;15.77;;;9.48;;
16506;SDS011;8366;51.020;7.642;2022-08-27T00:32:22;16.90;;;9.63;;
16506;SDS011;8366;51.020;7.642;2022-08-27T00:34:49;16.83;;;11.75;;
16506;SDS011;8366;51.020;7.642;2022-08-27T00:37:16;16.73;;;11.90;;
16506;SDS011;8366;51.020;7.642;2022-08-27T00:39:44;16.98;;;12.65;;
16506;SDS011;8366;51.020;7.642;2022-08-27T00:42:11;14.48;;;10.52;;
16506;SDS011;8366;51.020;7.642;2022-08-27T00:44:37;16.05;;;10.88;;
16506;SDS011;8366;51.020;7.642;2022-08-27T00:47:04;17.88;;;12.50;;
16506;SDS011;8366;51.020;7.642;2022-08-27T00:49:33;20.55;;;14.00;;
16506;SDS011;8366;51.020;7.642;2022-08-27T00:52:04;17.55;;;12.85;;
16506;SDS011;8366;51.020;7.642;2022-08-27T00:54:32;17.90;;;13.10;;
16506;SDS011;8366;51.020;7.642;2022-08-27T00:57:00;18.17;;;12.85;;
16506;SDS011;8366;51.020;7.642;2022-08-27T00:59:28;17.05;;;12.80;;
16506;SDS011;8366;51.020;7.642;2022-08-27T01:01:57;18.08;;;12.75;;
16506;SDS011;8366;51.020;7.642;2022-08-27T01:04:42;17.38;;;13.18;;
16506;SDS011;8366;51.020;7.642;2022-08-27T01:07:10;21.17;;;13.68;;
16506;SDS011;8366;51.020;7.642;2022-08-27T01:09:37;22.70;;;14.27;;
16506;SDS011;8366;51.020;7.642;2022-08-27T01:12:06;20.77;;;14.38;;
16506;SDS011;8366;51.020;7.642;2022-08-27T01:14:33;19.40;;;14.00;;
16506;SDS011;8366;51.020;7.642;2022-08-27T01:16:59;16.83;;;12.52;;
16506;SDS011;8366;51.020;7.642;2022-08-27T01:19:29;16.10;;;12.52;;
16506;SDS011;8366;51.020;7.642;2022-08-27T01:22:02;14.95;;;12.65;;
16506;SDS011;8366;51.020;7.642;2022-08-27T01:24:34;20.55;;;13.85;;
16506;SDS011;8366;51.020;7.642;2022-08-27T01:27:02;18.13;;;13.95;;
16506;SDS011;8366;51.020;7.642;2022-08-27T01:29:30;20.08;;;14.15;;
16506;SDS011;8366;51.020;7.642;2022-08-27T01:31:58;15.85;;;12.88;;
16506;SDS011;8366;51.020;7.642;2022-08-27T01:34:30;14.68;;;11.90;;
16506;SDS011;8366;51.020;7.642;2022-08-27T01:36:56;16.92;;;12.15;;
16506;SDS011;8366;51.020;7.642;2022-08-27T01:39:23;17.63;;;12.95;;
16506;SDS011;8366;51.020;7.642;2022-08-27T01:41:51;16.95;;;13.15;;
16506;SDS011;8366;51.020;7.642;2022-08-27T01:44:17;17.58;;;12.65;;
16506;SDS011;8366;51.020;7.642;2022-08-27T01:46:44;17.65;;;12.68;;
16506;SDS011;8366;51.020;7.642;2022-08-27T01:49:10;15.50;;;12.45;;
16506;SDS011;8366;51.020;7.642;2022-08-27T01:51:36;16.30;;;12.48;;
16506;SDS011;8366;51.020;7.642;2022-08-27T01:54:03;16.13;;;11.57;;
16506;SDS011;8366;51.020;7.642;2022-08-27T01:56:30;15.55;;;11.57;;
16506;SDS011;8366;51.020;7.642;2022-08-27T01:58:58;14.52;;;11.07;;
16506;SDS011;8366;51.020;7.642;2022-08-27T02:01:24;13.13;;;10.82;;
16506;SDS011;8366;51.020;7.642;2022-08-27T02:03:50;16.15;;;10.88;;
16506;SDS011;8366;51.020;7.642;2022-08-27T02:06:17;12.65;;;9.95;;
16506;SDS011;8366;51.020;7.642;2022-08-27T02:08:43;14.13;;;9.82;;
16506;SDS011;8366;51.020;7.642;2022-08-27T02:11:10;13.52;;;8.98;;
16506;SDS011;8366;51.020;7.642;2022-08-27T02:13:36;9.95;;;8.43;;
16506;SDS011;8366;51.020;7.642;2022-08-27T02:16:04;11.15;;;7.93;;
16506;SDS011;8366;51.020;7.642;2022-08-27T02:18:31;9.35;;;7.50;;
16506;SDS011;8366;51.020;7.642;2022-08-27T02:20:57;9.35;;;6.72;;
16506;SDS011;8366;51.020;7.642;2022-08-27T02:23:24;9.30;;;7.35;;
16506;SDS011;8366;51.020;7.642;2022-08-27T02:25:50;8.40;;;6.75;;
16506;SDS011;8366;51.020;7.642;2022-08-27T02:28:16;7.63;;;6.25;;
16506;SDS011;8366;51.020;7.642;2022-08-27T02:30:43;7.88;;;5.90;;
16506;SDS011;8366;51.020;7.642;2022-08-27T02:33:11;8.63;;;6.38;;
16506;SDS011;8366;51.020;7.642;2022-08-27T02:35:37;7.72;;;5.57;;
16506;SDS011;8366;51.020;7.642;2022-08-27T02:38:04;7.70;;;6.25;;
16506;SDS011;8366;51.020;7.642;2022-08-27T02:40:31;7.68;;;6.03;;
16506;SDS011;8366;51.020;7.642;2022-08-27T02:42:58;8.35;;;6.35;;
16506;SDS011;8366;51.020;7.642;2022-08-27T02:45:24;7.07;;;5.20;;
16506;SDS011;8366;51.020;7.642;2022-08-27T02:47:51;7.45;;;5.30;;
16506;SDS011;8366;51.020;7.642;2022-08-27T02:50:19;7.10;;;5.32;;
16506;SDS011;8366;51.020;7.642;2022-08-27T02:52:46;6.20;;;4.38;;
16506;SDS011;8366;51.020;7.642;2022-08-27T02:55:13;6.80;;;4.72;;
16506;SDS011;8366;51.020;7.642;2022-08-27T02:57:40;5.85;;;4.70;;
16506;SDS011;8366;51.020;7.642;2022-08-27T03:00:08;5.53;;;3.92;;
16506;SDS011;8366;51.020;7.642;2022-08-27T03:02:36;4.78;;;3.70;;
16506;SDS011;8366;51.020;7.642;2022-08-27T03:05:03;3.85;;;3.25;;
16506;SDS011;8366;51.020;7.642;2022-08-27T03:07:31;4.68;;;3.72;;
16506;SDS011;8366;51.020;7.642;2022-08-27T03:09:58;3.92;;;3.38;;
16506;SDS011;8366;51.020;7.642;2022-08-27T03:12:24;4.63;;;3.20;;
16506;SDS011;8366;51.020;7.642;2022-08-27T03:14:51;4.68;;;3.63;;
16506;SDS011;8366;51.020;7.642;2022-08-27T03:17:17;4.40;;;3.83;;
16506;SDS011;8366;51.020;7.642;2022-08-27T03:20:01;4.57;;;3.63;;
16506;SDS011;8366;51.020;7.642;2022-08-27T03:22:28;3.75;;;3.35;;
16506;SDS011;8366;51.020;7.642;2022-08-27T03:24:56;3.53;;;3.22;;
16506;SDS011;8366;51.020;7.642;2022-08-27T03:27:22;4.78;;;3.10;;
16506;SDS011;8366;51.020;7.642;2022-08-27T03:29:49;4.80;;;3.80;;
16506;SDS011;8366;51.020;7.642;2022-08-27T03:32:15;4.13;;;3.03;;
16506;SDS011;8366;51.020;7.642;2022-08-27T03:34:42;4.95;;;3.90;;
16506;SDS011;8366;51.020;7.642;2022-08-27T03:37:08;5.13;;;3.63;;
16506;SDS011;8366;51.020;7.642;2022-08-27T03:39:35;4.43;;;3.53;;
16506;SDS011;8366;51.020;7.642;2022-08-27T03:42:02;4.40;;;3.30;;
16506;SDS011;8366;51.020;7.642;2022-08-27T03:44:29;4.97;;;3.90;;
16506;SDS011;8366;51.020;7.642;2022-08-27T03:46:57;6.15;;;4.00;;
16506;SDS011;8366;51.020;7.642;2022-08-27T03:49:24;4.82;;;3.78;;
16506;SDS011;8366;51.020;7.642;2022-08-27T03:51:50;6.55;;;4.22;;
16506;SDS011;8366;51.020;7.642;2022-08-27T03:54:18;4.05;;;3.22;;
16506;SDS011;8366;51.020;7.642;2022-08-27T03:56:44;4.78;;;3.90;;
16506;SDS011;8366;51.020;7.642;2022-08-27T03:59:12;4.28;;;3.70;;
16506;SDS011;8366;51.020;7.642;2022-08-27T04:01:40;6.68;;;4.40;;
16506;SDS011;8366;51.020;7.642;2022-08-27T04:04:06;4.88;;;3.53;;
16506;SDS011;8366;51.020;7.642;2022-08-27T04:06:33;4.07;;;3.35;;
16506;SDS011;8366;51.020;7.642;2022-08-27T04:09:00;5.20;;;4.10;;
16506;SDS011;8366;51.020;7.642;2022-08-27T04:11:26;5.10;;;3.90;;
16506;SDS011;8366;51.020;7.642;2022-08-27T04:13:53;5.13;;;4.38;;
16506;SDS011;8366;51.020;7.642;2022-08-27T04:16:21;4.95;;;3.97;;
16506;SDS011;8366;51.020;7.642;2022-08-27T04:18:49;4.38;;;3.92;;
16506;SDS011;8366;51.020;7.642;2022-08-27T04:21:16;5.50;;;4.20;;
16506;SDS011;8366;51.020;7.642;2022-08-27T04:23:42;5.93;;;4.30;;
16506;SDS011;8366;51.020;7.642;2022-08-27T04:26:09;4.50;;;3.65;;
16506;SDS011;8366;51.020;7.642;2022-08-27T04:28:36;4.25;;;3.78;;
16506;SDS011;8366;51.020;7.642;2022-08-27T04:31:02;5.25;;;4.25;;
16506;SDS011;8366;51.020;7.642;2022-08-27T04:33:30;5.60;;;4.20;;
16506;SDS011;8366;51.020;7.642;2022-08-27T04:35:57;4.47;;;3.75;;
16506;SDS011;8366;51.020;7.642;2022-08-27T04:38:23;4.50;;;3.92;;
16506;SDS011;8366;51.020;7.642;2022-08-27T04:40:50;5.57;;;3.85;;
16506;SDS011;8366;51.020;7.642;2022-08-27T04:43:34;4.20;;;3.63;;
16506;SDS011;8366;51.020;7.642;2022-08-27T04:46:00;4.72;;;4.07;;
16506;SDS011;8366;51.020;7.642;2022-08-27T04:48:27;4.55;;;3.38;;
16506;SDS011;8366;51.020;7.642;2022-08-27T04:50:55;4.15;;;3.72;;
16506;SDS011;8366;51.020;7.642;2022-08-27T04:53:21;4.03;;;3.50;;
16506;SDS011;8366;51.020;7.642;2022-08-27T04:55:49;4.50;;;3.55;;
16506;SDS011;8366;51.020;7.642;2022-08-27T04:58:16;4.63;;;3.47;;
16506;SDS011;8366;51.020;7.642;2022-08-27T05:00:45;4.90;;;3.90;;
16506;SDS011;8366;51.020;7.642;2022-08-27T05:03:12;5.00;;;3.10;;
16506;SDS011;8366;51.020;7.642;2022-08-27T05:05:39;3.90;;;3.40;;
16506;SDS011;8366;51.020;7.642;2022-08-27T05:08:07;3.85;;;3.22;;
16506;SDS011;8366;51.020;7.642;2022-08-27T05:10:38;5.03;;;2.83;;
16506;SDS011;8366;51.020;7.642;2022-08-27T05:13:05;4.13;;;3.40;;
16506;SDS011;8366;51.020;7.642;2022-08-27T05:15:31;3.85;;;3.28;;
16506;SDS011;8366;51.020;7.642;2022-08-27T05:17:58;4.40;;;3.15;;
16506;SDS011;8366;51.020;7.642;2022-08-27T05:20:24;4.72;;;3.35;;
16506;SDS011;8366;51.020;7.642;2022-08-27T05:22:51;4.95;;;3.40;;
16506;SDS011;8366;51.020;7.642;2022-08-27T05:25:19;4.68;;;3.15;;
16506;SDS011;8366;51.020;7.642;2022-08-27T05:27:45;3.53;;;2.90;;
16506;SDS011;8366;51.020;7.642;2022-08-27T05:30:12;3.78;;;3.13;;
16506;SDS011;8366;51.020;7.642;2022-08-27T05:32:38;5.18;;;3.55;;
16506;SDS011;8366;51.020;7.642;2022-08-27T05:35:05;3.63;;;3.03;;
16506;SDS011;8366;51.020;7.642;2022-08-27T05:37:33;4.75;;;3.35;;
16506;SDS011;8366;51.020;7.642;2022-08-27T05:40:00;4.28;;;3.33;;
16506;SDS011;8366;51.020;7.642;2022-08-27T05:42:29;3.90;;;3.22;;
16506;SDS011;8366;51.020;7.642;2022-08-27T05:44:56;5.55;;;4.10;;
16506;SDS011;8366;51.020;7.642;2022-08-27T05:47:22;5.65;;;3.90;;
16506;SDS011;8366;51.020;7.642;2022-08-27T05:49:50;5.32;;;4.15;;
16506;SDS011;8366;51.020;7.642;2022-08-27T05:52:16;4.75;;;3.70;;
16506;SDS011;8366;51.020;7.642;2022-08-27T05:54:43;4.82;;;4.00;;
16506;SDS011;8366;51.020;7.642;2022-08-27T05:57:09;4.78;;;3.65;;
16506;SDS011;8366;51.020;7.642;2022-08-27T05:59:37;4.85;;;3.78;;
16506;SDS011;8366;51.020;7.642;2022-08-27T06:02:21;5.65;;;4.22;;
16506;SDS011;8366;51.020;7.642;2022-08-27T06:04:47;4.95;;;3.92;;
16506;SDS011;8366;51.020;7.642;2022-08-27T06:07:14;4.50;;;3.88;;
16506;SDS011;8366;51.020;7.642;2022-08-27T06:09:41;6.00;;;4.00;;
16506;SDS011;8366;51.020;7.642;2022-08-27T06:12:07;5.13;;;4.10;;
16506;SDS011;8366;51.020;7.642;2022-08-27T06:14:34;5.60;;;4.00;;
16506;SDS011;8366;51.020;7.642;2022-08-27T06:17:02;4.10;;;3.70;;
16506;SDS011;8366;51.020;7.642;2022-08-27T06:19:30;5.47;;;4.32;;
16506;SDS011;8366;51.020;7.642;2022-08-27T06:21:58;6.90;;;3.95;;
16506;SDS011;8366;51.020;7.642;2022-08-27T06:24:26;4.70;;;3.80;;
16506;SDS011;8366;51.020;7.642;2022-08-27T06:26:53;5.05;;;3.75;;
16506;SDS011;8366;51.020;7.642;2022-08-27T06:29:19;4.30;;;3.65;;
16506;SDS011;8366;51.020;7.642;2022-08-27T06:31:47;5.53;;;3.45;;
16506;SDS011;8366;51.020;7.642;2022-08-27T06:34:17;4.47;;;3.60;;
16506;SDS011;8366;51.020;7.642;2022-08-27T06:36:44;4.65;;;3.70;;
16506;SDS011;8366;51.020;7.642;2022-08-27T06:39:10;5.38;;;3.45;;
16506;SDS011;8366;51.020;7.642;2022-08-27T06:41:39;5.30;;;3.92;;
16506;SDS011;8366;51.020;7.642;2022-08-27T06:44:07;5.88;;;3.63;;
16506;SDS011;8366;51.020;7.642;2022-08-27T06:46:35;4.90;;;3.45;;
16506;SDS011;8366;51.020;7.642;2022-08-27T06:49:02;3.65;;;3.05;;
16506;SDS011;8366;51.020;7.642;2022-08-27T06:51:30;5.13;;;3.30;;
16506;SDS011;8366;51.020;7.642;2022-08-27T06:53:58;3.78;;;3.28;;
16506;SDS011;8366;51.020;7.642;2022-08-27T06:56:26;4.53;;;3.10;;
16506;SDS011;8366;51.020;7.642;2022-08-27T06:58:53;4.95;;;3.03;;
16506;SDS011;8366;51.020;7.642;2022-08-27T07:01:21;4.18;;;3.38;;
16506;SDS011;8366;51.020;7.642;2022-08-27T07:03:49;3.33;;;2.80;;
16506;SDS011;8366;51.020;7.642;2022-08-27T07:06:16;3.45;;;2.55;;
16506;SDS011;8366;51.020;7.642;2022-08-27T07:08:44;3.30;;;3.00;;
16506;SDS011;8366;51.020;7.642;2022-08-27T07:11:11;3.45;;;2.95;;
16506;SDS011;8366;51.020;7.642;2022-08-27T07:13:38;3.10;;;2.72;;
16506;SDS011;8366;51.020;7.642;2022-08-27T07:16:05;3.63;;;2.50;;
16506;SDS011;8366;51.020;7.642;2022-08-27T07:18:33;2.30;;;2.10;;
16506;SDS011;8366;51.020;7.642;2022-08-27T07:21:00;3.10;;;2.70;;
16506;SDS011;8366;51.020;7.642;2022-08-27T07:23:28;2.30;;;2.10;;
16506;SDS011;8366;51.020;7.642;2022-08-27T07:25:56;2.53;;;2.05;;
16506;SDS011;8366;51.020;7.642;2022-08-27T07:28:22;2.28;;;2.00;;
16506;SDS011;8366;51.020;7.642;2022-08-27T07:30:49;2.47;;;1.80;;
16506;SDS011;8366;51.020;7.642;2022-08-27T07:33:15;3.08;;;2.05;;
16506;SDS011;8366;51.020;7.642;2022-08-27T07:35:42;1.60;;;1.50;;
16506;SDS011;8366;51.020;7.642;2022-08-27T07:38:09;1.92;;;1.40;;
16506;SDS011;8366;51.020;7.642;2022-08-27T07:40:36;1.73;;;1.63;;
16506;SDS011;8366;51.020;7.642;2022-08-27T07:43:05;1.63;;;1.52;;
16506;SDS011;8366;51.020;7.642;2022-08-27T07:45:49;1.77;;;1.67;;
16506;SDS011;8366;51.020;7.642;2022-08-27T07:48:19;1.35;;;1.25;;
16506;SDS011;8366;51.020;7.642;2022-08-27T07:50:46;1.60;;;1.50;;
16506;SDS011;8366;51.020;7.642;2022-08-27T07:53:13;1.67;;;1.55;;
16506;SDS011;8366;51.020;7.642;2022-08-27T07:55:39;1.70;;;1.60;;
16506;SDS011;8366;51.020;7.642;2022-08-27T07:58:07;2.38;;;1.27;;
16506;SDS011;8366;51.020;7.642;2022-08-27T08:00:33;1.98;;;1.45;;
16506;SDS011;8366;51.020;7.642;2022-08-27T08:03:00;1.90;;;1.40;;
16506;SDS011;8366;51.020;7.642;2022-08-27T08:05:27;1.50;;;1.40;;
16506;SDS011;8366;51.020;7.642;2022-08-27T08:07:54;1.80;;;1.70;;
16506;SDS011;8366;51.020;7.642;2022-08-27T08:10:20;1.63;;;1.52;;
16506;SDS011;8366;51.020;7.642;2022-08-27T08:12:47;2.08;;;1.50;;
16506;SDS011;8366;51.020;7.642;2022-08-27T08:15:16;1.80;;;1.70;;
16506;SDS011;8366;51.020;7.642;2022-08-27T08:17:43;1.70;;;1.60;;
16506;SDS011;8366;51.020;7.642;2022-08-27T08:20:10;1.55;;;1.45;;
16506;SDS011;8366;51.020;7.642;2022-08-27T08:22:37;1.67;;;1.58;;
16506;SDS011;8366;51.020;7.642;2022-08-27T08:25:04;4.65;;;2.03;;
16506;SDS011;8366;51.020;7.642;2022-08-27T08:27:31;1.92;;;1.83;;
16506;SDS011;8366;51.020;7.642;2022-08-27T08:29:58;2.13;;;1.60;;
16506;SDS011;8366;51.020;7.642;2022-08-27T08:32:26;2.47;;;1.80;;
16506;SDS011;8366;51.020;7.642;2022-08-27T08:34:53;1.60;;;1.50;;
16506;SDS011;8366;51.020;7.642;2022-08-27T08:37:20;1.98;;;1.67;;
16506;SDS011;8366;51.020;7.642;2022-08-27T08:39:47;1.40;;;1.30;;
16506;SDS011;8366;51.020;7.642;2022-08-27T08:42:19;1.90;;;1.58;;
16506;SDS011;8366;51.020;7.642;2022-08-27T08:44:50;1.88;;;1.20;;
16506;SDS011;8366;51.020;7.642;2022-08-27T08:47:20;1.45;;;1.25;;
16506;SDS011;8366;51.020;7.642;2022-08-27T08:49:50;1.80;;;1.45;;
16506;SDS011;8366;51.020;7.642;2022-08-27T08:52:28;1.30;;;1.20;;
16506;SDS011;8366;51.020;7.642;2022-08-27T08:55:06;1.00;;;1.00;;
16506;SDS011;8366;51.020;7.642;2022-08-27T08:57:39;1.40;;;1.30;;
16506;SDS011;8366;51.020;7.642;2022-08-27T09:00:22;1.50;;;1.17;;
16506;SDS011;8366;51.020;7.642;2022-08-27T09:02:50;1.45;;;1.00;;
16506;SDS011;8366;51.020;7.642;2022-08-27T09:05:21;1.63;;;1.15;;
16506;SDS011;8366;51.020;7.642;2022-08-27T09:07:51;1.38;;;1.27;;
16506;SDS011;8366;51.020;7.642;2022-08-27T09:10:23;1.10;;;1.00;;
16506;SDS011;8366;51.020;7.642;2022-08-27T09:12:52;1.90;;;1.30;;
16506;SDS011;8366;51.020;7.642;2022-08-27T09:15:23;1.63;;;1.30;;
16506;SDS011;8366;51.020;7.642;2022-08-27T09:17:51;1.70;;;1.20;;
16506;SDS011;8366;51.020;7.642;2022-08-27T09:20:30;2.28;;;1.50;;
16506;SDS011;8366;51.020;7.642;2022-08-27T09:23:01;1.95;;;1.50;;
16506;SDS011;8366;51.020;7.642;2022-08-27T09:25:32;2.17;;;1.50;;
16506;SDS011;8366;51.020;7.642;2022-08-27T09:28:07;2.22;;;1.77;;
16506;SDS011;8366;51.020;7.642;2022-08-27T09:30:57;2.03;;;1.50;;
16506;SDS011;8366;51.020;7.642;2022-08-27T09:33:24;1.73;;;1.63;;
16506;SDS011;8366;51.020;7.642;2022-08-27T09:35:52;1.95;;;1.45;;
16506;SDS011;8366;51.020;7.642;2022-08-27T09:38:21;3.17;;;1.73;;
16506;SDS011;8366;51.020;7.642;2022-08-27T09:40:55;1.40;;;1.27;;
16506;SDS011;8366;51.020;7.642;2022-08-27T09:43:25;1.80;;;1.50;;
16506;SDS011;8366;51.020;7.642;2022-08-27T09:45:53;1.88;;;1.60;;
16506;SDS011;8366;51.020;7.642;2022-08-27T09:48:22;2.05;;;1.48;;
16506;SDS011;8366;51.020;7.642;2022-08-27T09:50:53;1.65;;;1.55;;
16506;SDS011;8366;51.020;7.642;2022-08-27T09:53:22;2.13;;;1.52;;
16506;SDS011;8366;51.020;7.642;2022-08-27T09:55:52;2.30;;;1.60;;
16506;SDS011;8366;51.020;7.642;2022-08-27T09:58:20;2.45;;;1.60;;
16506;SDS011;8366;51.020;7.642;2022-08-27T10:00:56;2.15;;;1.95;;
16506;SDS011;8366;51.020;7.642;2022-08-27T10:03:24;3.28;;;2.15;;
16506;SDS011;8366;51.020;7.642;2022-08-27T10:05:51;3.40;;;2.28;;
16506;SDS011;8366;51.020;7.642;2022-08-27T10:08:24;3.20;;;2.30;;
16506;SDS011;8366;51.020;7.642;2022-08-27T10:10:57;2.35;;;1.98;;
16506;SDS011;8366;51.020;7.642;2022-08-27T10:13:27;3.15;;;2.38;;
16506;SDS011;8366;51.020;7.642;2022-08-27T10:18:52;4.03;;;2.50;;
16506;SDS011;8366;51.020;7.642;2022-08-27T10:21:26;4.18;;;2.55;;
16506;SDS011;8366;51.020;7.642;2022-08-27T10:23:57;6.82;;;4.55;;
16506;SDS011;8366;51.020;7.642;2022-08-27T10:26:36;5.93;;;3.33;;
16506;SDS011;8366;51.020;7.642;2022-08-27T10:29:07;2.90;;;2.60;;
16506;SDS011;8366;51.020;7.642;2022-08-27T10:31:39;4.10;;;2.58;;
16506;SDS011;8366;51.020;7.642;2022-08-27T10:34:12;4.53;;;2.65;;
16506;SDS011;8366;51.020;7.642;2022-08-27T10:36:53;5.32;;;2.88;;
16506;SDS011;8366;51.020;7.642;2022-08-27T10:39:35;4.00;;;2.65;;
16506;SDS011;8366;51.020;7.642;2022-08-27T10:42:10;3.75;;;2.92;;
16506;SDS011;8366;51.020;7.642;2022-08-27T10:44:48;3.88;;;2.85;;
16506;SDS011;8366;51.020;7.642;2022-08-27T10:47:21;4.93;;;3.00;;
16506;SDS011;8366;51.020;7.642;2022-08-27T10:49:59;4.10;;;2.38;;
16506;SDS011;8366;51.020;7.642;2022-08-27T10:52:55;3.88;;;2.55;;
16506;SDS011;8366;51.020;7.642;2022-08-27T10:55:26;7.30;;;3.15;;
16506;SDS011;8366;51.020;7.642;2022-08-27T10:58:01;4.57;;;2.80;;
16506;SDS011;8366;51.020;7.642;2022-08-27T11:00:40;4.82;;;2.83;;
16506;SDS011;8366;51.020;7.642;2022-08-27T11:03:12;4.60;;;2.45;;
16506;SDS011;8366;51.020;7.642;2022-08-27T11:05:50;5.75;;;2.88;;
16506;SDS011;8366;51.020;7.642;2022-08-27T11:08:20;5.90;;;3.03;;
16506;SDS011;8366;51.020;7.642;2022-08-27T11:10:50;4.90;;;2.55;;
16506;SDS011;8366;51.020;7.642;2022-08-27T11:13:22;6.32;;;2.67;;
16506;SDS011;8366;51.020;7.642;2022-08-27T11:15:53;3.72;;;2.58;;
16506;SDS011;8366;51.020;7.642;2022-08-27T11:18:22;7.13;;;2.67;;
16506;SDS011;8366;51.020;7.642;2022-08-27T11:20:56;4.15;;;2.63;;
16506;SDS011;8366;51.020;7.642;2022-08-27T11:23:29;5.38;;;2.67;;
16506;SDS011;8366;51.020;7.642;2022-08-27T11:25:59;8.50;;;3.30;;
16506;SDS011;8366;51.020;7.642;2022-08-27T11:28:28;5.70;;;2.75;;
16506;SDS011;8366;51.020;7.642;2022-08-27T11:31:02;4.82;;;2.83;;
16506;SDS011;8366;51.020;7.642;2022-08-27T11:33:34;3.72;;;2.25;;
16506;SDS011;8366;51.020;7.642;2022-08-27T11:38:56;4.93;;;2.78;;
16506;SDS011;8366;51.020;7.642;2022-08-27T11:41:37;4.03;;;2.45;;
16506;SDS011;8366;51.020;7.642;2022-08-27T11:44:09;6.30;;;2.90;;
16506;SDS011;8366;51.020;7.642;2022-08-27T11:46:41;5.38;;;2.58;;
16506;SDS011;8366;51.020;7.642;2022-08-27T11:49:09;3.35;;;2.17;;
16506;SDS011;8366;51.020;7.642;2022-08-27T11:51:37;4.82;;;2.60;;
16506;SDS011;8366;51.020;7.642;2022-08-27T11:54:06;4.95;;;2.60;;
16506;SDS011;8366;51.020;7.642;2022-08-27T11:56:36;7.18;;;3.17;;
16506;SDS011;8366;51.020;7.642;2022-08-27T11:59:09;6.97;;;3.40;;
16506;SDS011;8366;51.020;7.642;2022-08-27T12:01:37;6.20;;;3.08;;
16506;SDS011;8366;51.020;7.642;2022-08-27T12:04:05;4.40;;;2.90;;
16506;SDS011;8366;51.020;7.642;2022-08-27T12:06:44;7.18;;;3.20;;
16506;SDS011;8366;51.020;7.642;2022-08-27T12:09:18;6.75;;;3.15;;
16506;SDS011;8366;51.020;7.642;2022-08-27T12:11:48;4.45;;;3.00;;
16506;SDS011;8366;51.020;7.642;2022-08-27T12:14:24;7.07;;;3.20;;
16506;SDS011;8366;51.020;7.642;2022-08-27T12:17:02;5.75;;;3.35;;
16506;SDS011;8366;51.020;7.642;2022-08-27T12:19:39;5.82;;;3.45;;
16506;SDS011;8366;51.020;7.642;2022-08-27T12:22:13;6.35;;;3.85;;
16506;SDS011;8366;51.020;7.642;2022-08-27T12:24:58;4.60;;;3.30;;
16506;SDS011;8366;51.020;7.642;2022-08-27T12:27:26;5.40;;;3.45;;
16506;SDS011;8366;51.020;7.642;2022-08-27T12:30:00;4.13;;;3.05;;
16506;SDS011;8366;51.020;7.642;2022-08-27T12:32:31;4.20;;;3.03;;
16506;SDS011;8366;51.020;7.642;2022-08-27T12:35:01;7.90;;;3.60;;
16506;SDS011;8366;51.020;7.642;2022-08-27T12:37:34;10.20;;;7.35;;
16506;SDS011;8366;51.020;7.642;2022-08-27T12:40:06;10.45;;;5.88;;
16506;SDS011;8366;51.020;7.642;2022-08-27T12:42:37;8.07;;;5.10;;
16506;SDS011;8366;51.020;7.642;2022-08-27T12:45:04;7.82;;;5.22;;
16506;SDS011;8366;51.020;7.642;2022-08-27T12:47:32;10.20;;;4.80;;
16506;SDS011;8366;51.020;7.642;2022-08-27T12:50:05;6.82;;;5.10;;
16506;SDS011;8366;51.020;7.642;2022-08-27T12:55:32;7.28;;;4.32;;
16506;SDS011;8366;51.020;7.642;2022-08-27T12:58:05;6.57;;;4.80;;
16506;SDS011;8366;51.020;7.642;2022-08-27T13:00:37;7.90;;;4.88;;
16506;SDS011;8366;51.020;7.642;2022-08-27T13:03:20;6.22;;;4.38;;
16506;SDS011;8366;51.020;7.642;2022-08-27T13:05:50;7.88;;;3.70;;
16506;SDS011;8366;51.020;7.642;2022-08-27T13:08:21;6.82;;;4.40;;
16506;SDS011;8366;51.020;7.642;2022-08-27T13:10:50;5.57;;;3.55;;
16506;SDS011;8366;51.020;7.642;2022-08-27T13:13:18;5.70;;;3.50;;
16506;SDS011;8366;51.020;7.642;2022-08-27T13:15:47;4.68;;;3.25;;
16506;SDS011;8366;51.020;7.642;2022-08-27T13:18:15;8.13;;;3.00;;
16506;SDS011;8366;51.020;7.642;2022-08-27T13:20:42;7.40;;;3.13;;
16506;SDS011;8366;51.020;7.642;2022-08-27T13:23:12;7.35;;;3.35;;
16506;SDS011;8366;51.020;7.642;2022-08-27T13:25:39;4.78;;;2.95;;
16506;SDS011;8366;51.020;7.642;2022-08-27T13:28:08;6.03;;;3.47;;
16506;SDS011;8366;51.020;7.642;2022-08-27T13:30:37;5.95;;;3.15;;
16506;SDS011;8366;51.020;7.642;2022-08-27T13:33:06;4.63;;;3.08;;
16506;SDS011;8366;51.020;7.642;2022-08-27T13:35:34;5.90;;;2.95;;
16506;SDS011;8366;51.020;7.642;2022-08-27T13:38:02;4.32;;;2.40;;
16506;SDS011;8366;51.020;7.642;2022-08-27T13:40:30;5.55;;;2.38;;
16506;SDS011;8366;51.020;7.642;2022-08-27T13:43:01;4.15;;;2.15;;
16506;SDS011;8366;51.020;7.642;2022-08-27T13:45:30;4.43;;;2.30;;
16506;SDS011;8366;51.020;7.642;2022-08-27T13:47:58;4.22;;;2.50;;
16506;SDS011;8366;51.020;7.642;2022-08-27T13:50:26;5.82;;;2.90;;
16506;SDS011;8366;51.020;7.642;2022-08-27T13:53:00;4.05;;;2.63;;
16506;SDS011;8366;51.020;7.642;2022-08-27T13:55:46;4.10;;;2.65;;
16506;SDS011;8366;51.020;7.642;2022-08-27T13:58:14;6.35;;;2.90;;
16506;SDS011;8366;51.020;7.642;2022-08-27T14:00:47;6.13;;;3.90;;
16506;SDS011;8366;51.020;7.642;2022-08-27T14:03:24;5.40;;;3.67;;
16506;SDS011;8366;51.020;7.642;2022-08-27T14:05:54;6.70;;;4.30;;
16506;SDS011;8366;51.020;7.642;2022-08-27T14:08:21;8.80;;;3.92;;
16506;SDS011;8366;51.020;7.642;2022-08-27T14:10:49;5.00;;;4.05;;
16506;SDS011;8366;51.020;7.642;2022-08-27T14:13:25;6.18;;;4.22;;
16506;SDS011;8366;51.020;7.642;2022-08-27T14:15:54;6.45;;;4.10;;
16506;SDS011;8366;51.020;7.642;2022-08-27T14:18:24;5.70;;;3.78;;
16506;SDS011;8366;51.020;7.642;2022-08-27T14:20:52;4.78;;;3.97;;
16506;SDS011;8366;51.020;7.642;2022-08-27T14:23:20;4.70;;;3.60;;
16506;SDS011;8366;51.020;7.642;2022-08-27T14:25:47;6.35;;;3.70;;
16506;SDS011;8366;51.020;7.642;2022-08-27T14:28:14;5.57;;;3.88;;
16506;SDS011;8366;51.020;7.642;2022-08-27T14:30:41;9.15;;;4.68;;
16506;SDS011;8366;51.020;7.642;2022-08-27T14:33:09;6.13;;;3.72;;
16506;SDS011;8366;51.020;7.642;2022-08-27T14:35:36;7.15;;;4.25;;
16506;SDS011;8366;51.020;7.642;2022-08-27T14:38:06;6.18;;;3.58;;
16506;SDS011;8366;51.020;7.642;2022-08-27T14:40:35;5.55;;;3.60;;
16506;SDS011;8366;51.020;7.642;2022-08-27T14:43:02;4.70;;;3.25;;
16506;SDS011;8366;51.020;7.642;2022-08-27T14:45:28;4.35;;;3.47;;
16506;SDS011;8366;51.020;7.642;2022-08-27T14:47:55;3.92;;;2.80;;
16506;SDS011;8366;51.020;7.642;2022-08-27T14:50:23;4.28;;;3.10;;
16506;SDS011;8366;51.020;7.642;2022-08-27T14:52:49;5.28;;;3.42;;
16506;SDS011;8366;51.020;7.642;2022-08-27T14:55:16;3.80;;;2.90;;
16506;SDS011;8366;51.020;7.642;2022-08-27T14:57:42;5.00;;;3.15;;
16506;SDS011;8366;51.020;7.642;2022-08-27T15:00:09;5.68;;;2.97;;
16506;SDS011;8366;51.020;7.642;2022-08-27T15:02:36;4.22;;;2.95;;
16506;SDS011;8366;51.020;7.642;2022-08-27T15:05:04;3.90;;;2.75;;
16506;SDS011;8366;51.020;7.642;2022-08-27T15:07:32;5.70;;;2.80;;
16506;SDS011;8366;51.020;7.642;2022-08-27T15:09:58;6.60;;;4.72;;
16506;SDS011;8366;51.020;7.642;2022-08-27T15:12:25;4.68;;;3.22;;
16506;SDS011;8366;51.020;7.642;2022-08-27T15:14:52;9.25;;;3.58;;
16506;SDS011;8366;51.020;7.642;2022-08-27T15:17:18;4.95;;;3.08;;